Flight Track Log - Related Links

Times and Time Zones

All times are in EDT time to prevent confusion due to time zone crossing. See the N379BE flight status page for this flight to view local times or setup timezone preferences in your user account.

Time Position Orientation Groundspeed Altitude Reporting Facility
EDT Latitude Longitude Course Direction KTS MPH feet Rate Location/Type
Wed 03:48:43 PM 44.4217 -96.9614 313° West 168 193 6,900  Level Minneapolis Center
Wed 03:49:42 PM 44.4475 -97.0008 315° West 146 168 7,800 550 Climbing Minneapolis Center
Wed 03:50:43 PM 44.4714 -97.0344 314° West 141 162 8,000 149 Climbing Minneapolis Center
Wed 03:51:43 PM 44.5053 -97.0831 312° West 151 174 8,100 50 Climbing Minneapolis Center
Wed 03:52:42 PM 44.5389 -97.1347 314° West 167 192 8,100  Level Minneapolis Center
Wed 03:53:43 PM 44.5708 -97.1806 311° West 167 192 8,100  Level Minneapolis Center
Wed 03:54:43 PM 44.6006 -97.2292 316° Northwest 167 192 8,100  Level Minneapolis Center
Wed 03:55:43 PM 44.6344 -97.2750 309° West 172 198 8,100  Level Minneapolis Center
Wed 03:56:42 PM 44.6658 -97.3297 307° West 167 192 8,100  Level Minneapolis Center
Wed 03:57:43 PM 44.6933 -97.3814 317° Northwest 167 192 8,100  Level Minneapolis Center
Wed 03:58:43 PM 44.7311 -97.4306 314° West 167 192 8,100  Level Minneapolis Center
Wed 03:59:42 PM 44.7647 -97.4800 307° West 172 198 8,100  Level Minneapolis Center
Wed 04:00:43 PM 44.7961 -97.5378 315° West 177 204 8,100  Level Minneapolis Center
Wed 04:01:42 PM 44.8317 -97.5872 312° West 177 204 8,100  Level Minneapolis Center
Wed 04:02:43 PM 44.8672 -97.6425 310° West 182 209 8,100  Level Minneapolis Center
Wed 04:03:42 PM 44.8947 -97.6883 316° Northwest 182 209 8,100  Level Minneapolis Center
Wed 04:04:43 PM 44.9342 -97.7414 312° West 182 209 8,100  Level Minneapolis Center
Wed 04:05:42 PM 44.9697 -97.7969 314° West 187 215 8,100  Level Minneapolis Center
Wed 04:06:43 PM 45.0053 -97.8494 313° West 187 215 8,100  Level Minneapolis Center
Wed 04:07:43 PM 45.0406 -97.9022 310° West 187 215 8,100  Level Minneapolis Center
Wed 04:08:43 PM 45.0719 -97.9547 309° West 187 215 8,100  Level Minneapolis Center
Wed 04:09:43 PM 45.1069 -98.0164 317° Northwest 187 215 8,100  Level Minneapolis Center
Wed 04:10:43 PM 45.1444 -98.0667 315° West 187 215 8,100  Level Minneapolis Center
Wed 04:11:42 PM 45.1819 -98.1197 308° West 187 215 8,100  Level Minneapolis Center
Wed 04:12:43 PM 45.2128 -98.1753 315° West 187 215 8,100  Level Minneapolis Center
Wed 04:13:42 PM 45.2483 -98.2256 310° West 187 215 8,100  Level Minneapolis Center
Wed 04:14:43 PM 45.2814 -98.2817 312° West 187 215 8,100  Level Minneapolis Center
Wed 04:15:43 PM 45.3164 -98.3378 313° West 187 215 8,100  Level Minneapolis Center
Wed 04:16:43 PM 45.3517 -98.3911 313° West 187 215 8,100  Level Minneapolis Center
Wed 04:17:43 PM 45.3869 -98.4444 308° West 187 215 8,100  Level Minneapolis Center
Wed 04:18:43 PM 45.4178 -98.5006 313° West 187 215 8,100  Level Minneapolis Center
Wed 04:19:43 PM 45.4528 -98.5542 313° West 187 215 8,100  Level Minneapolis Center
Wed 04:20:43 PM 45.4881 -98.6078 310° West 187 215 8,100  Level Minneapolis Center
Wed 04:21:43 PM 45.5208 -98.6642 311° West 187 215 8,100  Level Minneapolis Center
Wed 04:22:43 PM 45.5539 -98.7178 314° West 187 215 8,100  Level Minneapolis Center
Wed 04:23:43 PM 45.5908 -98.7717 311° West 187 215 8,100  Level Minneapolis Center
Wed 04:24:43 PM 45.6239 -98.8253 311° West 187 215 8,100  Level Minneapolis Center
Wed 04:25:42 PM 45.6567 -98.8792 311° West 187 215 8,100  Level Minneapolis Center
Wed 04:26:43 PM 45.6894 -98.9328 311° West 182 209 8,100  Level Minneapolis Center
Wed 04:27:43 PM 45.7222 -98.9867 313° West 182 209 8,100  Level Minneapolis Center
Wed 04:28:43 PM 45.7553 -99.0375 311° West 182 209 8,100 -100 Level Minneapolis Center
Wed 04:29:43 PM 45.7881 -99.0917 311° West 182 209 7,900 -200 Descending Minneapolis Center
Wed 04:30:43 PM 45.8208 -99.1456 309° West 182 209 7,700 -250 Descending Minneapolis Center
Wed 04:31:43 PM 45.8533 -99.2028 313° West 182 209 7,400 -250 Descending Minneapolis Center
Wed 04:32:43 PM 45.8881 -99.2572 313° West 182 209 7,200 -250 Descending Minneapolis Center
Wed 04:33:43 PM 45.9247 -99.3147 311° West 187 215 6,900 -200 Descending Minneapolis Center
Wed 04:34:43 PM 45.9594 -99.3722 309° West 187 215 6,800 -151 Descending Minneapolis Center
Wed 04:35:42 PM 45.9919 -99.4297 311° West 187 215 6,600 -200 Descending Minneapolis Center
Wed 04:36:43 PM 46.0264 -99.4872 311° West 187 215 6,400 -200 Descending Minneapolis Center
Wed 04:37:42 PM 46.0608 -99.5450 314° West 187 215 6,200 -150 Descending Minneapolis Center
Wed 04:38:43 PM 46.0975 -99.6000 311° West 187 215 6,100 -50 Descending Minneapolis Center
Wed 04:39:43 PM 46.1300 -99.6547 309° West 187 215 6,100  Level Minneapolis Center
Wed 04:40:43 PM 46.1642 -99.7156 311° West 187 215 6,100  Level Minneapolis Center
Wed 04:41:43 PM 46.1967 -99.7703 310° West 187 215 6,100  Level Minneapolis Center
Wed 04:42:43 PM 46.2289 -99.8253 312° West 187 215 6,100  Level Minneapolis Center
Wed 04:43:43 PM 46.2636 -99.8806 310° West 187 215 6,100  Level Minneapolis Center
Wed 04:44:43 PM 46.2958 -99.9353 309° West 187 215 6,100  Level Minneapolis Center
Wed 04:45:43 PM 46.3281 -99.9933 312° West 187 215 6,100  Level Minneapolis Center
Wed 04:46:43 PM 46.3622 -100.0489 309° West 187 215 6,100  Level Minneapolis Center
Wed 04:47:43 PM 46.3944 -100.1069 314° West 187 215 6,100  Level Minneapolis Center
Wed 04:48:43 PM 46.4269 -100.1561 310° West 187 215 6,100  Level Minneapolis Center
Wed 04:49:43 PM 46.4592 -100.2114 312° West 182 209 6,100 -200 Level Minneapolis Center
Wed 04:50:43 PM 46.4953 -100.2703 308° West 187 215 5,700 -250 Descending Minneapolis Center
Wed 04:51:43 PM 46.5236 -100.3222 310° West 187 215 5,600 151 Descending Minneapolis Center
Wed 04:52:42 PM 46.5575 -100.3811 310° West 187 215 6,000 200 Climbing Minneapolis Center
Wed 04:53:43 PM 46.5897 -100.4367 310° West 187 215 6,000  Level Minneapolis Center
Wed 04:54:43 PM 46.6028 -100.4594 360° North 187 215 6,000  Level Minneapolis Center
Wed 04:55:43 PM 46.6028 -100.4594 360° North 187 215 6,000  Level Minneapolis Center
Wed 04:56:43 PM 46.6028 -100.4594 360° North 187 215 6,000  Level Minneapolis Center
Wed 04:57:43 PM 46.6028 -100.4594 360° North 187 215 6,000  Level Minneapolis Center
Wed 04:58:43 PM 46.6028 -100.4594 360° North 187 215 6,000  Level Minneapolis Center
Wed 04:59:42 PM 46.6028 -100.4594 360° North 187 215 6,000  Level Minneapolis Center

Login

Don't have an account? Register now (free) for customized features, flight alerts, and more!